Time;durP1;ratioP1;P1;durP2;ratioP2;P2;SDS_P1;SDS_P2;PMS_P1;PMS_P2;Temp;Humidity;BMP_temperature;BMP_pressure;BME280_temperature;BME280_humidity;BME280_pressure;Samples;Min_cycle;Max_cycle;Signal;HPM_P1;HPM_P2
2022/10/02 00:02:34;;;;;;;3.38;0.70;;;;;;;14.65;100.00;100713.66;4968231;28;20043;-82
2022/10/02 00:05:09;;;;;;;2.70;0.93;;;;;;;14.69;100.00;100715.75;4971748;28;20023;-82
2022/10/02 00:07:43;;;;;;;4.18;0.93;;;;;;;14.90;100.00;100713.19;4973944;29;20130;-81
2022/10/02 00:10:35;;;;;;;6.75;1.10;;;;;;;15.02;100.00;100722.38;4959321;29;20034;-81
2022/10/02 00:13:04;;;;;;;5.60;1.10;;;;;;;14.85;100.00;100733.41;4941990;29;20047;-84
2022/10/02 00:15:33;;;;;;;7.28;0.82;;;;;;;15.10;100.00;100731.28;4958667;29;20043;-83
2022/10/02 00:18:08;;;;;;;4.25;1.00;;;;;;;15.05;100.00;100731.84;4958608;29;20505;-85
2022/10/02 00:20:51;;;;;;;9.55;1.10;;;;;;;15.08;100.00;100736.00;4958641;29;20370;-82
2022/10/02 00:23:20;;;;;;;5.53;1.20;;;;;;;15.12;100.00;100738.09;4958649;29;20031;-81
2022/10/02 00:25:59;;;;;;;2.95;0.88;;;;;;;15.01;100.00;100739.38;4958355;29;20035;-79
2022/10/02 00:28:53;;;;;;;5.22;1.42;;;;;;;14.92;100.00;100742.34;4940776;29;20370;-82
2022/10/02 00:31:25;;;;;;;5.32;1.10;;;;;;;14.93;100.00;100739.50;4959458;29;20124;-81
2022/10/02 00:33:59;;;;;;;6.43;1.00;;;;;;;14.92;100.00;100734.34;4962879;29;20433;-80
2022/10/02 00:36:43;;;;;;;8.35;1.50;;;;;;;14.71;100.00;100740.44;4957615;28;20063;-80
2022/10/02 00:39:26;;;;;;;10.32;1.30;;;;;;;14.62;100.00;100741.50;4957947;29;20043;-81
2022/10/02 00:41:52;;;;;;;6.68;1.83;;;;;;;14.63;100.00;100748.50;4956810;29;20042;-82
2022/10/02 00:44:38;;;;;;;3.50;1.00;;;;;;;14.61;100.00;100750.53;4956609;29;20114;-81
2022/10/02 00:47:13;;;;;;;5.72;1.00;;;;;;;14.66;100.00;100741.97;4956857;29;20043;-82
2022/10/02 00:50:03;;;;;;;5.95;1.02;;;;;;;14.35;100.00;100744.81;4956973;29;20054;-81
2022/10/02 00:52:45;;;;;;;4.88;1.25;;;;;;;14.43;100.00;100736.72;4956829;29;20039;-81
2022/10/02 00:55:19;;;;;;;7.55;1.20;;;;;;;14.40;100.00;100729.06;4956635;29;20031;-81
2022/10/02 00:58:03;;;;;;;6.05;0.90;;;;;;;14.55;100.00;100723.78;4956671;29;20036;-81
2022/10/02 01:00:29;;;;;;;6.65;0.80;;;;;;;14.44;100.00;100722.38;4956781;29;20500;-82
2022/10/02 01:03:16;;;;;;;4.88;1.50;;;;;;;14.56;100.00;100730.75;4956569;29;20035;-81
2022/10/02 01:05:42;;;;;;;7.18;1.35;;;;;;;14.53;100.00;100731.09;4956364;29;20497;-80
2022/10/02 01:08:09;;;;;;;12.10;1.30;;;;;;;14.55;100.00;100732.56;4956665;29;20504;-80
2022/10/02 01:10:37;;;;;;;4.35;1.20;;;;;;;14.38;100.00;100733.78;4956242;29;20389;-80
2022/10/02 01:13:03;;;;;;;6.43;1.30;;;;;;;14.56;100.00;100731.56;4956286;29;20042;-80
2022/10/02 01:15:36;;;;;;;6.72;1.48;;;;;;;14.69;100.00;100730.94;4956472;29;20098;-84
2022/10/02 01:18:03;;;;;;;10.10;1.25;;;;;;;14.62;100.00;100736.16;4956163;29;20370;-83
2022/10/02 01:20:36;;;;;;;4.95;1.10;;;;;;;14.72;100.00;100730.56;4956245;29;20039;-84
2022/10/02 01:23:04;;;;;;;5.93;1.30;;;;;;;14.48;100.00;100729.00;4956137;29;20070;-84
2022/10/02 01:25:30;;;;;;;6.60;1.30;;;;;;;14.36;100.00;100727.78;4956134;29;20029;-84
2022/10/02 01:27:59;;;;;;;2.38;0.88;;;;;;;14.55;100.00;100726.44;4938923;29;20519;-80
2022/10/02 01:30:25;;;;;;;5.53;1.23;;;;;;;14.24;100.00;100731.88;4956168;29;20122;-80
2022/10/02 01:32:56;;;;;;;10.80;1.63;;;;;;;14.11;100.00;100721.00;4956122;29;20429;-81
2022/10/02 01:35:26;;;;;;;7.05;1.20;;;;;;;13.97;100.00;100726.09;4955930;29;20454;-80
2022/10/02 01:37:54;;;;;;;8.68;1.42;;;;;;;13.86;100.00;100720.34;4955994;29;20039;-83
2022/10/02 01:40:39;;;;;;;5.47;1.42;;;;;;;13.78;100.00;100715.94;4956024;29;20490;-81
2022/10/02 01:43:28;;;;;;;11.52;1.50;;;;;;;13.87;100.00;100714.84;4955849;29;20035;-82
2022/10/02 01:46:09;;;;;;;7.30;1.15;;;;;;;13.91;100.00;100716.16;4955530;29;20035;-81
2022/10/02 01:48:59;;;;;;;7.80;1.25;;;;;;;14.05;100.00;100719.06;4954848;28;20035;-80
2022/10/02 01:51:30;;;;;;;4.55;1.10;;;;;;;14.21;100.00;100732.22;4955501;29;20470;-81
2022/10/02 01:54:18;;;;;;;12.32;1.73;;;;;;;14.14;100.00;100736.63;4955563;29;20046;-81
2022/10/02 01:57:17;;;;;;;6.35;1.20;;;;;;;13.95;100.00;100733.44;4956928;29;20038;-81
2022/10/02 01:59:48;;;;;;;6.82;1.83;;;;;;;13.83;100.00;100729.53;4938206;29;20059;-80
2022/10/02 02:02:32;;;;;;;6.97;1.60;;;;;;;14.02;100.00;100725.53;4955468;29;20039;-81
2022/10/02 02:05:21;;;;;;;6.95;1.40;;;;;;;14.20;100.00;100720.72;4954978;29;20039;-81
2022/10/02 02:08:08;;;;;;;10.45;1.50;;;;;;;14.17;100.00;100725.59;4930111;29;20152;-80
2022/10/02 02:10:57;;;;;;;10.73;1.45;;;;;;;14.36;100.00;100719.78;4955132;29;20038;-80
2022/10/02 02:13:57;;;;;;;5.13;1.10;;;;;;;14.15;100.00;100712.44;4937970;29;20091;-81
2022/10/02 02:16:54;;;;;;;8.73;1.60;;;;;;;13.95;100.00;100720.09;4954982;29;20043;-82
2022/10/02 02:19:40;;;;;;;7.55;1.23;;;;;;;13.97;100.00;100722.59;4955256;29;20066;-82
2022/10/02 02:22:22;;;;;;;3.97;1.33;;;;;;;13.95;100.00;100728.09;4955142;29;20370;-84
2022/10/02 02:24:55;;;;;;;15.73;2.33;;;;;;;13.76;100.00;100733.91;4955104;29;20122;-82
2022/10/02 02:27:26;;;;;;;8.70;1.77;;;;;;;13.62;100.00;100726.66;4955178;29;20038;-83
2022/10/02 02:29:59;;;;;;;5.32;1.30;;;;;;;13.79;100.00;100728.22;4955154;29;20430;-80
2022/10/02 02:32:30;;;;;;;8.75;1.30;;;;;;;13.75;100.00;100721.63;4955016;29;20035;-83
2022/10/02 02:35:05;;;;;;;10.07;1.42;;;;;;;13.94;100.00;100723.78;4954870;29;20359;-81
2022/10/02 02:37:33;;;;;;;8.82;1.15;;;;;;;13.98;100.00;100727.75;4955016;29;20085;-82
2022/10/02 02:40:10;;;;;;;4.95;1.08;;;;;;;13.84;100.00;100720.53;4954934;29;20042;-83
2022/10/02 02:42:41;;;;;;;8.15;1.33;;;;;;;13.71;100.00;100717.66;4954741;29;20106;-82
2022/10/02 02:45:17;;;;;;;5.10;1.05;;;;;;;13.92;100.00;100723.13;4955012;29;20042;-84
2022/10/02 02:48:19;;;;;;;3.67;1.00;;;;;;;13.94;100.00;100729.13;4954581;29;20048;-81
2022/10/02 02:50:59;;;;;;;4.38;1.30;;;;;;;13.88;100.00;100727.19;4954719;29;20046;-83
2022/10/02 02:53:40;;;;;;;6.00;1.45;;;;;;;13.82;100.00;100727.88;4937790;29;20047;-80
2022/10/02 02:56:09;;;;;;;7.88;1.30;;;;;;;14.02;100.00;100716.75;4955168;29;20050;-82
2022/10/02 02:58:57;;;;;;;9.30;0.93;;;;;;;13.79;100.00;100719.41;4955151;29;20039;-84
2022/10/02 03:01:23;;;;;;;4.75;1.60;;;;;;;13.61;100.00;100724.22;4940735;29;20039;-80
2022/10/02 03:03:48;;;;;;;11.50;1.88;;;;;;;13.65;100.00;100741.50;4958750;29;20121;-80
2022/10/02 03:06:20;;;;;;;11.48;1.40;;;;;;;13.64;100.00;100748.66;4941204;29;20462;-82
2022/10/02 03:08:51;;;;;;;7.30;1.58;;;;;;;13.55;100.00;100739.06;4958462;29;20031;-81
2022/10/02 03:11:36;;;;;;;7.50;1.10;;;;;;;13.48;100.00;100735.44;4958480;29;20043;-81
2022/10/02 03:14:05;;;;;;;5.35;1.23;;;;;;;13.23;100.00;100742.72;4958193;29;20287;-82
2022/10/02 03:16:42;;;;;;;9.02;1.20;;;;;;;13.14;100.00;100745.59;4958037;29;20035;-81
2022/10/02 03:19:50;;;;;;;5.97;1.48;;;;;;;13.30;100.00;100757.00;4961031;29;20042;-80
2022/10/02 03:22:35;;;;;;;5.93;1.27;;;;;;;13.15;100.00;100755.25;4957780;29;20043;-79
2022/10/02 03:25:30;;;;;;;6.45;1.38;;;;;;;13.31;100.00;100749.84;4958034;29;20082;-83
2022/10/02 03:28:15;;;;;;;7.43;1.38;;;;;;;13.24;100.00;100770.16;4958062;29;20043;-82
2022/10/02 03:30:42;;;;;;;10.30;1.58;;;;;;;13.14;100.00;100781.03;4957949;29;20482;-80
2022/10/02 03:33:11;;;;;;;5.28;1.10;;;;;;;13.07;100.00;100784.50;4957678;29;20397;-82
2022/10/02 03:35:38;;;;;;;3.13;1.20;;;;;;;12.96;100.00;100791.84;4957558;29;20051;-81
2022/10/02 03:38:06;;;;;;;3.25;1.17;;;;;;;13.09;100.00;100803.84;4957775;29;20032;-85
2022/10/02 03:40:33;;;;;;;8.63;1.65;;;;;;;12.94;100.00;100799.19;4957706;29;20050;-82
2022/10/02 03:42:59;;;;;;;8.52;1.25;;;;;;;12.81;100.00;100790.06;4957506;29;20122;-81
2022/10/02 03:45:26;;;;;;;7.60;1.92;;;;;;;12.65;100.00;100796.25;4957750;29;20062;-81
2022/10/02 03:47:51;;;;;;;8.52;1.58;;;;;;;12.80;100.00;100794.56;4957615;29;20051;-81
2022/10/02 03:50:17;;;;;;;9.35;1.40;;;;;;;12.88;100.00;100785.72;4957380;29;20110;-81
2022/10/02 03:52:43;;;;;;;5.32;1.20;;;;;;;12.85;100.00;100797.56;4957674;29;20039;-81
2022/10/02 03:55:32;;;;;;;8.65;1.35;;;;;;;13.02;100.00;100808.97;4957829;29;20035;-82
2022/10/02 03:58:01;;;;;;;13.60;1.40;;;;;;;13.20;100.00;100806.94;4957911;29;20102;-81
2022/10/02 04:00:40;;;;;;;6.15;1.45;;;;;;;13.31;100.00;100813.72;4957585;29;20029;-83
2022/10/02 04:03:14;;;;;;;9.95;1.77;;;;;;;13.55;100.00;100834.94;4957874;29;20031;-83
2022/10/02 04:05:47;;;;;;;8.57;1.30;;;;;;;13.47;100.00;100834.94;4957557;29;20050;-81
2022/10/02 04:08:20;;;;;;;6.45;1.30;;;;;;;13.40;100.00;100839.31;4957545;29;20031;-82
2022/10/02 04:10:53;;;;;;;11.23;1.90;;;;;;;13.26;100.00;100837.34;4957068;28;20038;-83
2022/10/02 04:13:35;;;;;;;7.03;1.27;;;;;;;13.26;100.00;100829.38;4956293;29;20115;-83
2022/10/02 04:16:23;;;;;;;7.33;1.43;;;;;;;13.18;100.00;100840.06;4957041;29;20051;-81
2022/10/02 04:18:54;;;;;;;9.38;1.65;;;;;;;13.12;100.00;100848.72;4957224;29;20067;-81
2022/10/02 04:21:53;;;;;;;10.25;1.77;;;;;;;13.14;100.00;100857.34;4956822;29;20043;-82
2022/10/02 04:24:28;;;;;;;5.13;1.35;;;;;;;13.11;100.00;100863.03;4958384;29;20058;-81
2022/10/02 04:27:31;;;;;;;10.30;1.38;;;;;;;12.98;100.00;100860.03;4959090;29;20039;-81
2022/10/02 04:30:05;;;;;;;7.82;1.50;;;;;;;12.89;100.00;100849.38;4934526;29;20051;-82
2022/10/02 04:32:37;;;;;;;4.38;1.13;;;;;;;12.93;100.00;100858.69;4966992;29;20043;-85
2022/10/02 04:35:21;;;;;;;15.95;1.80;;;;;;;12.86;100.00;100857.72;4967340;29;20031;-80
2022/10/02 04:37:46;;;;;;;;;;;;;;;12.76;100.00;100859.72;4961242;29;20042;-81
2022/10/02 04:40:49;;;;;;;8.23;1.17;;;;;;;12.61;100.00;100863.22;4957105;29;19990;-80
2022/10/02 04:43:52;;;;;;;9.45;1.60;;;;;;;12.56;100.00;100870.88;4959303;29;20050;-80
2022/10/02 04:46:26;;;;;;;6.50;1.88;;;;;;;12.57;100.00;100862.72;4904487;29;20051;-80
2022/10/02 04:49:13;;;;;;;12.10;1.67;;;;;;;12.49;100.00;100860.09;4939453;29;20497;-82
2022/10/02 04:52:05;;;;;;;6.55;1.50;;;;;;;12.46;100.00;100863.06;4957315;29;20385;-80
2022/10/02 04:54:56;;;;;;;16.85;1.58;;;;;;;12.47;100.00;100867.38;4954693;29;20058;-81
2022/10/02 04:57:37;;;;;;;6.05;1.67;;;;;;;12.57;100.00;100872.53;4957345;29;20057;-82
2022/10/02 05:00:18;;;;;;;12.90;2.08;;;;;;;12.60;100.00;100882.81;4956570;29;20062;-82
2022/10/02 05:03:22;;;;;;;6.43;1.30;;;;;;;12.58;100.00;100874.19;4956658;29;20035;-80
2022/10/02 05:06:11;;;;;;;5.18;1.40;;;;;;;12.61;100.00;100869.38;4956269;29;20373;-81
2022/10/02 05:08:49;;;;;;;4.95;1.90;;;;;;;12.75;100.00;100867.88;4938963;29;20445;-84
2022/10/02 05:11:27;;;;;;;8.82;1.40;;;;;;;12.91;100.00;100871.34;4956365;29;20035;-84
2022/10/02 05:14:14;;;;;;;9.88;2.20;;;;;;;12.80;100.00;100871.69;4956031;29;20563;-83
2022/10/02 05:17:03;;;;;;;13.45;2.00;;;;;;;12.74;100.00;100863.53;4954689;29;20402;-80
2022/10/02 05:19:37;;;;;;;9.82;1.98;;;;;;;12.65;100.00;100876.03;4955955;29;20082;-81
2022/10/02 05:22:15;;;;;;;9.75;2.13;;;;;;;12.63;100.00;100874.50;4938493;29;20071;-83
2022/10/02 05:25:17;;;;;;;5.68;1.60;;;;;;;12.76;100.00;100875.69;4938201;29;20478;-81
2022/10/02 05:27:58;;;;;;;5.53;1.75;;;;;;;12.80;100.00;100882.31;4955667;29;20035;-85
2022/10/02 05:30:34;;;;;;;10.98;2.15;;;;;;;12.77;100.00;100874.69;4938994;29;20071;-82
2022/10/02 05:33:20;;;;;;;11.35;1.80;;;;;;;12.89;100.00;100881.31;4955803;29;20362;-82
2022/10/02 05:35:56;;;;;;;7.38;2.10;;;;;;;13.06;100.00;100889.28;4957066;29;20547;-83
2022/10/02 05:39:16;;;;;;;10.10;2.08;;;;;;;13.12;100.00;100893.97;4955634;29;20106;-86
2022/10/02 05:41:50;;;;;;;6.40;1.45;;;;;;;13.42;100.00;100901.22;4895210;29;20052;-86
2022/10/02 05:44:18;;;;;;;8.68;1.50;;;;;;;13.41;100.00;100908.38;4895836;29;20045;-86
2022/10/02 05:46:51;;;;;;;6.40;1.20;;;;;;;13.51;100.00;100908.16;4896309;29;20047;-85
2022/10/02 05:49:43;;;;;;;10.23;1.70;;;;;;;13.86;100.00;100910.34;4896184;29;20045;-81
2022/10/02 05:52:39;;;;;;;5.55;1.40;;;;;;;14.23;100.00;100912.31;4872769;29;20040;-83
2022/10/02 05:55:18;;;;;;;5.60;1.30;;;;;;;14.79;100.00;100919.09;4877671;29;20120;-83
2022/10/02 05:57:53;;;;;;;5.90;1.60;;;;;;;14.86;100.00;100925.38;4937930;29;20071;-82
2022/10/02 06:00:28;;;;;;;7.13;1.60;;;;;;;14.70;100.00;100925.53;4954951;29;20058;-85
2022/10/02 06:03:22;;;;;;;5.90;1.33;;;;;;;14.50;100.00;100935.00;4955367;29;20037;-83
2022/10/02 06:05:54;;;;;;;7.10;1.27;;;;;;;14.32;100.00;100943.25;4944836;29;20066;-84
2022/10/02 06:08:34;;;;;;;11.35;1.88;;;;;;;14.27;100.00;100947.44;4958245;29;20382;-80
2022/10/02 06:11:07;;;;;;;8.95;1.63;;;;;;;14.39;100.00;100954.06;4955005;29;20039;-80
2022/10/02 06:13:42;;;;;;;10.18;1.60;;;;;;;14.73;100.00;100962.50;4955017;29;20099;-79
2022/10/02 06:16:20;;;;;;;9.82;2.10;;;;;;;14.96;100.00;100951.81;4954708;29;20092;-83
2022/10/02 06:18:52;;;;;;;7.78;2.25;;;;;;;15.06;100.00;100940.88;4954990;29;20089;-82
2022/10/02 06:21:31;;;;;;;11.13;1.80;;;;;;;15.34;100.00;100944.63;4938603;29;20075;-90
2022/10/02 06:24:01;;;;;;;9.35;1.75;;;;;;;15.29;100.00;100947.84;4937269;29;20410;-90
2022/10/02 06:27:08;;;;;;;4.25;1.63;;;;;;;15.75;100.00;100958.38;4954899;29;20554;-81
2022/10/02 06:29:41;;;;;;;7.82;1.80;;;;;;;16.17;100.00;100945.16;4877637;29;20056;-85
2022/10/02 06:32:32;;;;;;;12.80;1.80;;;;;;;16.10;100.00;100938.09;4877359;29;20052;-84
2022/10/02 06:34:58;;;;;;;4.30;1.30;;;;;;;16.27;100.00;100923.47;4860431;29;20140;-84
2022/10/02 06:37:40;;;;;;;6.25;1.25;;;;;;;16.00;100.00;100935.72;4877148;29;20124;-85
2022/10/02 06:40:34;;;;;;;8.95;1.27;;;;;;;15.61;100.00;100949.34;4944915;29;20050;-88
2022/10/02 06:43:10;;;;;;;10.63;2.22;;;;;;;15.37;100.00;100946.94;4903146;29;20056;-89
2022/10/02 06:45:46;;;;;;;5.43;1.30;;;;;;;15.19;100.00;100944.59;4955494;29;20040;-86
2022/10/02 06:48:38;;;;;;;4.75;1.52;;;;;;;15.11;100.00;100938.53;4956078;29;20485;-87
2022/10/02 06:51:21;;;;;;;5.03;1.55;;;;;;;15.21;100.00;100936.41;4955668;29;20039;-85
2022/10/02 06:53:53;;;;;;;8.43;1.60;;;;;;;15.31;100.00;100945.81;4954779;29;20540;-87
2022/10/02 06:56:28;;;;;;;6.97;1.58;;;;;;;15.39;100.00;100947.56;4955117;29;20039;-88
2022/10/02 06:59:03;;;;;;;11.10;1.73;;;;;;;15.48;100.00;100943.81;4955660;29;20051;-88
2022/10/02 07:01:36;;;;;;;10.43;1.83;;;;;;;15.60;100.00;100934.34;4952567;28;20030;-83
2022/10/02 07:04:07;;;;;;;;;;;;;;;15.62;100.00;100940.34;4937928;29;20442;-89
2022/10/02 07:06:38;;;;;;;3.38;1.35;;;;;;;15.79;100.00;100944.47;4955439;29;19920;-84
2022/10/02 07:09:35;;;;;;;5.97;2.08;;;;;;;16.31;100.00;100943.44;4956278;29;20027;-85
2022/10/02 07:12:19;;;;;;;4.68;1.55;;;;;;;16.84;100.00;100972.44;4955572;29;20031;-83
2022/10/02 07:15:20;;;;;;;12.25;1.23;;;;;;;17.53;100.00;100984.13;4956518;29;20035;-86
2022/10/02 07:17:54;;;;;;;3.95;1.30;;;;;;;17.53;100.00;100980.66;4939254;29;20046;-85
2022/10/02 07:20:51;;;;;;;5.13;1.25;;;;;;;17.59;100.00;100963.81;4957190;29;20094;-84
2022/10/02 07:23:58;;;;;;;6.93;2.88;;;;;;;18.01;100.00;100966.28;4956519;29;20041;-84
2022/10/02 07:26:30;;;;;;;13.63;1.90;;;;;;;18.04;100.00;100967.75;4878831;29;20094;-84
2022/10/02 07:29:24;;;;;;;7.65;1.50;;;;;;;18.14;100.00;100959.31;4879711;29;20045;-87
2022/10/02 07:32:00;;;;;;;9.60;1.65;;;;;;;18.46;100.00;100969.34;4858976;29;20376;-86
2022/10/02 07:35:20;;;;;;;4.53;1.55;;;;;;;17.86;100.00;100972.81;4875369;29;20056;-83
2022/10/02 07:38:11;;;;;;;7.78;1.60;;;;;;;17.55;100.00;100954.47;4840207;29;20432;-86
2022/10/02 07:40:42;;;;;;;4.00;1.50;;;;;;;17.65;100.00;100957.66;4904628;29;20501;-87
2022/10/02 07:43:46;;;;;;;5.82;1.48;;;;;;;17.66;100.00;100961.16;4955512;29;20477;-84
2022/10/02 07:46:34;;;;;;;9.35;1.52;;;;;;;17.97;100.00;100970.41;4900606;29;20048;-87
2022/10/02 07:49:08;;;;;;;8.35;1.83;;;;;;;19.00;100.00;100969.25;4939889;29;20043;-86
2022/10/02 07:51:56;;;;;;;6.07;1.70;;;;;;;19.72;100.00;100982.66;4939276;29;20461;-84
2022/10/02 07:57:32;;;;;;;7.90;1.67;;;;;;;22.00;97.19;100967.88;5116065;23;20504;-86
2022/10/02 08:00:13;;;;;;;11.40;1.55;;;;;;;21.25;100.00;100958.22;4957919;29;20028;-86
2022/10/02 08:02:46;;;;;;;12.43;1.38;;;;;;;20.78;100.00;100956.13;4958348;29;20039;-84
2022/10/02 08:05:32;;;;;;;6.70;1.30;;;;;;;20.79;100.00;100958.56;4958637;29;20065;-88
2022/10/02 08:08:03;;;;;;;5.93;1.40;;;;;;;21.23;100.00;100959.50;4959217;29;20076;-90
2022/10/02 08:10:34;;;;;;;6.30;1.15;;;;;;;21.52;99.10;100966.91;4959443;29;20493;-89
2022/10/02 08:13:13;;;;;;;4.60;1.17;;;;;;;21.81;98.89;100978.88;4961693;29;20110;-90
2022/10/02 08:15:43;;;;;;;12.02;2.00;;;;;;;21.80;97.68;100972.63;4961099;29;20118;-87
2022/10/02 08:18:39;;;;;;;3.90;1.20;;;;;;;21.90;95.11;100972.97;4943534;29;20117;-83
2022/10/02 08:21:29;;;;;;;8.15;1.48;;;;;;;21.80;96.49;100974.50;4959429;29;20134;-84
2022/10/02 08:24:19;;;;;;;6.68;1.38;;;;;;;22.17;95.48;100967.25;4961981;29;20063;-85
2022/10/02 08:27:07;;;;;;;3.85;1.10;;;;;;;22.27;94.91;100973.75;4965614;28;20040;-87
2022/10/02 08:29:40;;;;;;;7.50;1.25;;;;;;;22.36;94.06;100966.16;4958452;29;20512;-87
2022/10/02 08:32:12;;;;;;;9.25;1.17;;;;;;;22.83;91.34;100968.00;4941354;29;20441;-88
2022/10/02 08:34:40;;;;;;;13.65;1.80;;;;;;;23.35;86.91;100955.47;4959122;29;20039;-90
2022/10/02 08:37:31;;;;;;;8.23;1.70;;;;;;;23.60;84.33;100952.53;4936915;29;20495;-89
2022/10/02 08:40:24;;;;;;;5.18;0.90;;;;;;;24.66;79.07;100952.00;4957038;29;20493;-87
2022/10/02 08:43:23;;;;;;;4.63;0.90;;;;;;;24.27;79.04;100952.88;4943010;29;20450;-91
2022/10/02 08:45:55;;;;;;;7.95;1.55;;;;;;;23.87;79.48;100961.81;4958400;29;20058;-87
2022/10/02 08:48:58;;;;;;;9.88;1.35;;;;;;;23.51;81.96;100970.22;4944882;29;20050;-88
2022/10/02 08:51:53;;;;;;;5.53;1.42;;;;;;;23.23;85.71;100964.66;4946307;28;20415;-86
2022/10/02 08:54:54;;;;;;;7.95;1.38;;;;;;;23.15;85.96;100974.75;4912763;29;20048;-86
2022/10/02 08:57:34;;;;;;;15.93;4.90;;;;;;;23.18;86.55;100966.16;4911600;29;20121;-87
2022/10/02 09:00:29;;;;;;;8.80;2.30;;;;;;;23.18;87.89;100968.88;4968966;28;20027;-87
2022/10/02 09:03:32;;;;;;;8.90;1.77;;;;;;;22.91;86.94;100975.75;4970840;28;20019;-87
2022/10/02 09:06:19;;;;;;;11.45;1.38;;;;;;;23.37;83.43;100969.59;4962676;28;20027;-86
2022/10/02 09:09:41;;;;;;;8.88;2.97;;;;;;;24.11;80.67;100966.09;4961613;28;20035;-84
2022/10/02 09:12:46;;;;;;;6.38;1.30;;;;;;;24.58;77.22;100960.53;4900273;29;20052;-87
2022/10/02 09:15:25;;;;;;;8.27;1.05;;;;;;;24.54;77.63;100953.94;4885036;29;20111;-85
2022/10/02 09:18:14;;;;;;;6.55;1.00;;;;;;;25.24;74.94;100948.94;4900187;29;20053;-88
2022/10/02 09:20:49;;;;;;;7.50;1.70;;;;;;;25.44;72.70;100967.41;4885455;29;20048;-84
2022/10/02 09:23:42;;;;;;;8.30;1.40;;;;;;;25.52;70.86;100967.03;4901177;29;20104;-88
2022/10/02 09:26:29;;;;;;;8.07;1.00;;;;;;;25.07;73.71;100964.41;4901417;29;20113;-84
2022/10/02 09:29:14;;;;;;;6.97;1.48;;;;;;;25.41;71.84;100959.78;4901477;29;20136;-85
2022/10/02 09:32:06;;;;;;;4.82;0.90;;;;;;;26.11;69.63;100952.63;4899780;29;20046;-86
2022/10/02 09:35:16;;;;;;;7.90;1.50;;;;;;;27.77;66.07;100944.28;4905554;29;20040;-86
2022/10/02 09:38:26;;;;;;;10.18;2.03;;;;;;;27.78;62.85;100937.72;4899958;29;20080;-90
2022/10/02 09:41:12;;;;;;;8.05;1.85;;;;;;;27.52;62.72;100955.03;4877460;29;20121;-86
2022/10/02 09:43:58;;;;;;;7.43;1.85;;;;;;;28.30;54.11;100942.31;4946076;29;20067;-88
2022/10/02 09:46:58;;;;;;;8.18;1.70;;;;;;;28.55;53.49;100937.72;4960224;29;20042;-88
2022/10/02 09:50:04;;;;;;;8.07;1.48;;;;;;;28.67;49.27;100946.50;4944283;29;20172;-88
2022/10/02 09:53:05;;;;;;;6.07;1.42;;;;;;;29.07;48.44;100944.84;4941028;29;20063;-90
2022/10/02 09:56:02;;;;;;;9.55;1.60;;;;;;;28.83;49.83;100928.25;4939811;29;20409;-86
2022/10/02 09:58:43;;;;;;;10.38;1.70;;;;;;;28.67;49.32;100912.94;4926764;29;20044;-87
2022/10/02 10:01:36;;;;;;;11.68;1.77;;;;;;;28.96;48.41;100927.69;4945323;29;20040;-85
2022/10/02 10:04:20;;;;;;;10.50;1.50;;;;;;;29.51;47.75;100934.19;4943744;29;20035;-86
2022/10/02 10:07:00;;;;;;;8.15;1.95;;;;;;;29.71;45.73;100931.38;4944866;29;20564;-90
2022/10/02 10:09:44;;;;;;;5.72;1.23;;;;;;;30.39;42.24;100928.91;4939753;29;20047;-88
2022/10/02 10:12:40;;;;;;;9.20;1.58;;;;;;;30.79;41.20;100936.03;4956565;29;20131;-86
2022/10/02 10:15:29;;;;;;;4.05;1.20;;;;;;;31.11;38.91;100936.31;4940854;29;20094;-88
2022/10/02 10:18:13;;;;;;;7.43;1.40;;;;;;;30.63;39.29;100938.03;4959023;29;20035;-88
2022/10/02 10:21:13;;;;;;;9.10;2.28;;;;;;;31.24;39.36;100936.47;4940438;29;20055;-88
2022/10/02 10:24:13;;;;;;;8.35;1.48;;;;;;;31.04;37.60;100935.81;4953355;28;20031;-87
2022/10/02 10:27:10;;;;;;;5.63;1.30;;;;;;;30.50;39.45;100914.88;4936292;29;20449;-89
2022/10/02 10:30:29;;;;;;;5.07;1.30;;;;;;;30.66;39.93;100918.31;4937503;29;20051;-87
2022/10/02 10:45:18;;;;;;;11.35;2.75;;;;;;;28.75;43.90;100898.75;4996195;28;20050;-89
2022/10/02 10:52:02;;;;;;;35.10;18.83;;;;;;;26.98;48.38;100900.75;4957129;29;20054;-86
2022/10/02 10:55:40;;;;;;;8.25;2.10;;;;;;;26.51;50.12;100891.63;4955654;29;20059;-86
2022/10/02 11:38:04;;;;;;;9.07;2.05;;;;;;;32.48;36.48;100875.16;4956635;23;20083;-84
2022/10/02 12:38:10;;;;;;;10.95;2.38;;;;;;;24.02;67.12;100756.34;5068581;23;20058;-89
2022/10/02 12:41:02;;;;;;;14.93;1.75;;;;;;;24.19;66.58;100756.38;4962621;29;20019;-90
2022/10/02 12:52:22;;;;;;;3.60;1.20;;;;;;;24.68;64.00;100723.00;5356045;23;20054;-90
2022/10/02 12:55:29;;;;;;;9.88;1.73;;;;;;;24.19;67.39;100716.56;4956371;29;20075;-90
2022/10/02 12:58:06;;;;;;;8.80;2.00;;;;;;;24.09;68.26;100712.84;4974634;29;20050;-89
2022/10/02 13:01:09;;;;;;;6.22;1.83;;;;;;;24.02;68.69;100710.31;4948491;29;20051;-88
2022/10/02 13:04:07;;;;;;;6.85;1.60;;;;;;;23.78;70.01;100699.84;4962647;29;20393;-88
2022/10/02 13:07:04;;;;;;;12.23;1.73;;;;;;;23.76;70.28;100692.00;4965468;29;20051;-88
2022/10/02 13:10:04;;;;;;;10.52;1.65;;;;;;;23.68;70.68;100686.97;4936341;29;20042;-90
2022/10/02 13:12:41;;;;;;;6.47;1.73;;;;;;;23.52;72.95;100674.22;4945891;29;20035;-92
2022/10/02 13:15:34;;;;;;;9.00;1.85;;;;;;;23.27;74.73;100679.16;4974051;29;20039;-90
2022/10/02 13:18:46;;;;;;;9.82;2.35;;;;;;;23.23;75.23;100662.59;4974612;28;20057;-92
2022/10/02 13:21:34;;;;;;;7.68;1.70;;;;;;;23.54;74.97;100666.69;4919465;29;20029;-91
2022/10/02 13:24:30;;;;;;;8.18;2.25;;;;;;;23.67;73.82;100666.38;4899134;29;20045;-91
2022/10/02 13:27:39;;;;;;;11.75;1.92;;;;;;;23.47;75.89;100666.00;4873798;29;20116;-91
2022/10/02 13:30:34;;;;;;;8.80;1.83;;;;;;;23.46;76.56;100675.22;4901738;29;20049;-91
2022/10/02 13:33:32;;;;;;;15.45;2.22;;;;;;;23.60;75.78;100671.94;4893979;29;20049;-91
2022/10/02 13:36:18;;;;;;;7.95;1.75;;;;;;;23.51;76.55;100667.16;4899952;29;20063;-91
2022/10/02 13:38:55;;;;;;;8.40;1.60;;;;;;;23.40;76.55;100666.16;4952245;29;20068;-93
2022/10/02 13:42:03;;;;;;;8.25;2.38;;;;;;;23.47;76.95;100660.59;4934139;29;20393;-92
2022/10/02 13:45:07;;;;;;;10.90;1.90;;;;;;;23.56;77.66;100656.47;4947079;29;20052;-89
2022/10/02 13:49:07;;;;;;;10.90;1.77;;;;;;;23.47;77.98;100655.19;5020525;23;20029;-92
2022/10/02 13:51:58;;;;;;;9.50;1.80;;;;;;;23.08;81.11;100651.47;4944840;29;20074;-91
2022/10/02 13:55:08;;;;;;;9.13;2.05;;;;;;;23.11;80.22;100630.16;4975548;29;20043;-92
2022/10/02 13:58:15;;;;;;;8.15;1.88;;;;;;;23.25;80.14;100628.00;4959311;29;20075;-93
2022/10/02 14:04:51;;;;;;;12.65;2.60;;;;;;;23.13;80.79;100627.25;4959388;29;20043;-92
2022/10/02 14:07:58;;;;;;;10.52;2.42;;;;;;;23.13;81.12;100617.22;4960023;29;20066;-92
2022/10/02 14:11:02;;;;;;;8.32;1.70;;;;;;;23.31;79.76;100601.84;4967476;29;20120;-91
2022/10/02 14:14:38;;;;;;;6.85;1.85;;;;;;;23.38;79.31;100608.75;4946039;29;20053;-92
2022/10/02 14:17:52;;;;;;;6.93;1.38;;;;;;;23.45;78.72;100595.09;4955973;29;20044;-93
2022/10/02 14:21:44;;;;;;;8.80;1.83;;;;;;;23.43;79.70;100591.84;4974257;29;20045;-92
2022/10/02 14:25:14;;;;;;;10.05;1.75;;;;;;;23.25;80.39;100587.44;4960639;29;20043;-93
2022/10/02 14:28:12;;;;;;;7.63;2.00;;;;;;;23.36;80.79;100578.44;4943714;29;20043;-92
2022/10/02 14:40:30;;;;;;;13.65;2.08;;;;;;;23.51;80.08;100586.00;4380187;23;20047;-89
2022/10/02 14:43:17;;;;;;;6.70;1.73;;;;;;;23.30;82.37;100584.00;4961983;29;20039;-91
2022/10/02 14:46:18;;;;;;;8.73;2.00;;;;;;;23.33;82.55;100576.22;4940839;29;20038;-86
2022/10/02 14:49:21;;;;;;;6.90;1.38;;;;;;;23.31;82.73;100566.69;4939549;29;20393;-87
2022/10/02 14:52:20;;;;;;;5.25;1.60;;;;;;;23.28;83.78;100567.19;4962368;29;20139;-89
2022/10/02 14:55:22;;;;;;;5.65;1.60;;;;;;;23.27;82.62;100560.94;4945019;29;20576;-89
2022/10/02 14:58:44;;;;;;;6.03;1.13;;;;;;;23.22;82.68;100557.34;4957544;29;20485;-90
2022/10/02 15:01:17;;;;;;;10.02;2.28;;;;;;;23.25;83.16;100570.38;4948866;29;20066;-89